createdAt,value
2018-09-09T00:02:51.455Z,82.65
2018-09-09T00:05:54.753Z,84.10
2018-09-09T00:08:57.981Z,83.55
2018-09-09T00:12:01.108Z,83.51
2018-09-09T00:15:04.462Z,83.45
2018-09-09T00:18:07.712Z,81.88
2018-09-09T00:21:10.913Z,81.43
2018-09-09T00:24:14.067Z,82.50
2018-09-09T00:27:17.243Z,82.66
2018-09-09T00:30:20.424Z,81.66
2018-09-09T00:33:23.595Z,81.33
2018-09-09T00:36:26.788Z,81.99
2018-09-09T00:39:30.055Z,82.94
2018-09-09T00:42:33.410Z,82.93
2018-09-09T00:45:36.816Z,83.82
2018-09-09T00:48:40.005Z,82.22
2018-09-09T00:51:48.775Z,82.58
2018-09-09T00:54:52.009Z,83.11
2018-09-09T00:57:55.293Z,84.99
2018-09-09T01:01:04.157Z,85.52
2018-09-09T01:04:07.402Z,84.56
2018-09-09T01:07:41.363Z,84.92
2018-09-09T01:10:44.543Z,85.36
2018-09-09T01:13:47.766Z,85.41
2018-09-09T01:16:50.854Z,84.67
2018-09-09T01:19:54.372Z,85.51
2018-09-09T01:22:57.607Z,84.92
2018-09-09T01:26:00.817Z,83.91
2018-09-09T01:29:04.011Z,84.60
2018-09-09T01:32:07.186Z,84.25
2018-09-09T01:35:10.355Z,83.74
2018-09-09T01:38:13.669Z,84.54
2018-09-09T01:41:16.825Z,84.76
2018-09-09T01:44:20.195Z,84.94
2018-09-09T01:47:23.607Z,85.05
2018-09-09T01:50:26.811Z,85.15
2018-09-09T01:53:29.970Z,84.72
2018-09-09T01:56:33.214Z,85.41
2018-09-09T01:59:36.230Z,86.83
2018-09-09T02:02:39.643Z,85.61
2018-09-09T02:05:42.792Z,86.26
2018-09-09T02:08:46.204Z,84.92
2018-09-09T02:11:49.318Z,86.43
2018-09-09T02:14:52.465Z,87.13
2018-09-09T02:17:55.609Z,87.27
2018-09-09T02:20:58.756Z,84.72
2018-09-09T02:24:02.857Z,85.53
2018-09-09T02:27:06.083Z,85.72
2018-09-09T02:30:09.257Z,86.94
2018-09-09T02:33:12.644Z,87.55
2018-09-09T02:36:15.854Z,88.48
2018-09-09T02:39:19.128Z,87.66
2018-09-09T02:42:22.364Z,87.57
2018-09-09T02:45:25.533Z,86.82
2018-09-09T02:48:28.713Z,88.24
2018-09-09T02:51:31.826Z,86.15
2018-09-09T02:54:35.012Z,87.40
2018-09-09T02:57:38.322Z,86.69
2018-09-09T03:00:41.439Z,87.48
2018-09-09T03:03:44.518Z,88.08
2018-09-09T03:06:47.701Z,87.54
2018-09-09T03:09:51.005Z,86.62
2018-09-09T03:12:54.239Z,86.75
2018-09-09T03:15:57.539Z,87.67
2018-09-09T03:19:00.725Z,87.05
2018-09-09T03:22:04.068Z,87.35
2018-09-09T03:25:07.253Z,87.04
2018-09-09T03:28:10.409Z,87.01
2018-09-09T03:31:13.446Z,85.44
2018-09-09T03:34:16.634Z,86.21
2018-09-09T03:37:19.903Z,85.92
2018-09-09T03:40:23.115Z,86.07
2018-09-09T03:43:29.674Z,86.27
2018-09-09T03:46:33.074Z,86.23
2018-09-09T03:49:36.326Z,87.05
2018-09-09T03:52:39.433Z,86.79
2018-09-09T03:55:42.806Z,87.33
2018-09-09T03:59:49.689Z,87.33
2018-09-09T04:02:52.932Z,86.61
2018-09-09T04:05:56.345Z,84.81
2018-09-09T04:09:00.684Z,84.88
2018-09-09T04:12:03.920Z,89.55
2018-09-09T04:15:07.310Z,87.38
2018-09-09T04:18:10.654Z,83.80
2018-09-09T04:21:13.950Z,84.78
2018-09-09T04:24:19.106Z,86.49
2018-09-09T04:27:22.248Z,86.42
2018-09-09T04:30:25.519Z,87.45
2018-09-09T04:33:29.830Z,87.18
2018-09-09T04:36:32.946Z,87.33
2018-09-09T04:39:36.304Z,87.53
2018-09-09T04:42:39.510Z,88.21
2018-09-09T04:45:43.829Z,88.88
2018-09-09T04:48:47.056Z,89.20
2018-09-09T04:51:50.286Z,89.62
2018-09-09T04:54:53.470Z,87.78
2018-09-09T04:57:56.837Z,87.76
2018-09-09T05:01:00.142Z,88.35
2018-09-09T05:04:04.513Z,89.45
2018-09-09T05:07:07.703Z,88.70
2018-09-09T05:10:11.039Z,88.35
2018-09-09T05:13:14.253Z,86.93
2018-09-09T05:16:17.474Z,87.39
2018-09-09T05:19:20.685Z,86.31
2018-09-09T05:22:23.825Z,86.12
2018-09-09T05:25:33.736Z,85.72
2018-09-09T05:28:36.910Z,86.38
2018-09-09T05:31:41.024Z,85.07
2018-09-09T05:35:47.359Z,84.63
2018-09-09T05:38:50.623Z,91.08
2018-09-09T05:41:53.926Z,89.23
2018-09-09T05:44:57.131Z,87.71
2018-09-09T05:48:00.203Z,84.65
2018-09-09T05:51:03.471Z,89.14
2018-09-09T05:54:07.117Z,90.16
2018-09-09T05:57:10.481Z,88.70
2018-09-09T06:00:13.790Z,89.05
2018-09-09T06:03:17.023Z,88.18
2018-09-09T06:06:20.427Z,85.12
2018-09-09T06:09:23.877Z,83.39
2018-09-09T06:12:27.981Z,80.55
2018-09-09T06:15:31.426Z,79.55
2018-09-09T06:18:36.419Z,79.02
2018-09-09T06:21:39.704Z,79.96
2018-09-09T06:24:42.872Z,80.91
2018-09-09T06:27:46.219Z,80.10
2018-09-09T06:30:50.451Z,80.51
2018-09-09T06:33:53.721Z,79.89
2018-09-09T06:36:56.945Z,77.52
2018-09-09T06:40:00.374Z,75.81
2018-09-09T06:43:05.649Z,79.33
2018-09-09T06:46:09.026Z,80.08
2018-09-09T06:49:12.220Z,82.78
2018-09-09T06:52:15.415Z,81.06
2018-09-09T06:55:18.739Z,76.08
2018-09-09T06:58:27.548Z,77.54
2018-09-09T07:01:30.825Z,79.39
2018-09-09T07:04:34.049Z,75.65
2018-09-09T07:07:37.262Z,73.36
2018-09-09T07:10:40.582Z,75.06
2018-09-09T07:13:45.834Z,78.37
2018-09-09T07:16:49.988Z,75.86
2018-09-09T07:19:53.532Z,78.12
2018-09-09T07:22:56.727Z,80.00
2018-09-09T07:25:59.814Z,75.86
2018-09-09T07:29:03.101Z,72.60
2018-09-09T07:32:06.290Z,71.74
2018-09-09T07:35:09.575Z,71.66
2018-09-09T07:38:12.857Z,68.49
2018-09-09T07:41:16.796Z,67.53
2018-09-09T07:44:20.755Z,68.07
2018-09-09T07:47:24.058Z,69.97
2018-09-09T07:50:27.226Z,71.82
2018-09-09T07:53:30.440Z,75.29
2018-09-09T07:56:33.761Z,74.44
2018-09-09T07:59:36.988Z,72.06
2018-09-09T08:02:40.170Z,70.04
2018-09-09T08:05:43.273Z,69.23
2018-09-09T08:08:46.997Z,70.85
2018-09-09T08:11:50.197Z,72.33
2018-09-09T08:14:53.436Z,72.46
2018-09-09T08:17:56.654Z,69.99
2018-09-09T08:20:59.876Z,71.39
2018-09-09T08:24:03.150Z,68.47
2018-09-09T08:27:06.480Z,68.86
2018-09-09T08:30:09.741Z,69.44
2018-09-09T08:33:13.052Z,67.34
2018-09-09T08:36:16.334Z,65.24
2018-09-09T08:39:19.696Z,66.54
2018-09-09T08:42:23.046Z,63.99
2018-09-09T08:45:26.215Z,61.06
2018-09-09T08:48:29.365Z,59.92
2018-09-09T08:51:32.529Z,60.43
2018-09-09T08:54:35.795Z,59.88
2018-09-09T08:57:39.306Z,63.68
2018-09-09T09:00:42.445Z,61.51
2018-09-09T09:03:46.124Z,61.55
2018-09-09T09:06:49.297Z,59.29
2018-09-09T09:09:52.608Z,60.40
2018-09-09T09:12:55.918Z,61.47
2018-09-09T09:15:59.363Z,62.23
2018-09-09T09:19:02.609Z,62.17
2018-09-09T09:22:06.613Z,60.52
2018-09-09T09:25:09.938Z,59.61
2018-09-09T09:28:13.127Z,60.11
2018-09-09T09:31:16.414Z,60.90
2018-09-09T09:34:19.687Z,59.49
2018-09-09T09:37:24.181Z,60.49
2018-09-09T09:40:27.494Z,61.63
2018-09-09T09:43:30.690Z,61.65
2018-09-09T09:46:34.316Z,61.46
2018-09-09T09:49:37.670Z,62.02
2018-09-09T09:52:41.025Z,60.16
2018-09-09T09:55:44.254Z,59.60
2018-09-09T09:58:47.538Z,58.06
2018-09-09T10:01:50.793Z,57.33
2018-09-09T10:04:54.123Z,58.60
2018-09-09T10:07:57.344Z,58.50
2018-09-09T10:11:00.841Z,58.59
2018-09-09T10:14:04.391Z,57.99
2018-09-09T10:17:07.746Z,58.50
2018-09-09T10:20:11.029Z,58.84
2018-09-09T10:23:14.315Z,57.25
2018-09-09T10:26:17.539Z,57.95
2018-09-09T10:29:20.668Z,58.64
2018-09-09T10:32:23.934Z,58.01
2018-09-09T10:35:27.211Z,57.83
2018-09-09T10:38:30.376Z,54.70
2018-09-09T10:41:33.576Z,56.69
2018-09-09T10:44:36.810Z,56.01
2018-09-09T10:47:40.177Z,55.87
2018-09-09T10:50:43.339Z,57.03
2018-09-09T10:53:46.569Z,56.46
2018-09-09T10:56:49.730Z,54.68
2018-09-09T10:59:53.115Z,54.42
2018-09-09T11:02:56.454Z,53.91
2018-09-09T11:05:59.788Z,52.66
2018-09-09T11:09:03.370Z,53.04
2018-09-09T11:12:07.119Z,52.13
2018-09-09T11:15:10.462Z,52.51
2018-09-09T11:18:13.706Z,50.40
2018-09-09T11:21:16.980Z,50.81
2018-09-09T11:24:20.205Z,50.27
2018-09-09T11:27:23.774Z,49.95
2018-09-09T11:30:26.955Z,46.87
2018-09-09T11:33:30.288Z,45.56
2018-09-09T11:36:33.612Z,44.42
2018-09-09T11:39:36.744Z,47.98
2018-09-09T11:42:39.926Z,48.49
2018-09-09T11:45:43.157Z,47.33
2018-09-09T11:48:46.692Z,48.97
2018-09-09T11:51:49.876Z,48.51
2018-09-09T11:54:53.095Z,47.50
2018-09-09T11:57:56.712Z,44.84
2018-09-09T12:00:59.831Z,45.95
2018-09-09T12:04:03.163Z,46.30
2018-09-09T12:07:06.345Z,46.70
2018-09-09T12:10:09.495Z,45.54
2018-09-09T12:13:12.675Z,47.69
2018-09-09T12:16:15.803Z,45.95
2018-09-09T12:19:18.888Z,45.10
2018-09-09T12:22:22.469Z,45.71
2018-09-09T12:25:25.692Z,44.81
2018-09-09T12:28:28.967Z,45.44
2018-09-09T12:31:32.048Z,46.10
2018-09-09T12:34:35.158Z,41.96
2018-09-09T12:37:38.330Z,41.01
2018-09-09T12:41:44.787Z,41.81
2018-09-09T12:44:53.576Z,42.42
2018-09-09T12:48:02.341Z,42.54
2018-09-09T12:51:05.467Z,41.01
2018-09-09T12:54:08.642Z,41.77
2018-09-09T12:57:11.862Z,40.75
2018-09-09T13:00:15.230Z,38.44
2018-09-09T13:03:18.456Z,40.29
2018-09-09T13:06:21.650Z,41.53
2018-09-09T13:09:24.802Z,41.09
2018-09-09T13:12:32.492Z,41.25
2018-09-09T13:15:35.598Z,42.06
2018-09-09T13:18:38.725Z,41.59
2018-09-09T13:21:42.762Z,41.50
2018-09-09T13:24:45.908Z,41.19
2018-09-09T13:27:49.217Z,39.93
2018-09-09T13:30:52.436Z,40.97
2018-09-09T13:33:55.727Z,39.57
2018-09-09T13:36:58.982Z,38.72
2018-09-09T13:40:03.502Z,36.96
2018-09-09T13:43:06.877Z,40.34
2018-09-09T13:46:10.283Z,40.58
2018-09-09T13:49:16.416Z,41.87
2018-09-09T13:52:19.893Z,40.33
2018-09-09T13:55:23.697Z,41.35
2018-09-09T13:58:26.996Z,41.00
2018-09-09T14:01:32.464Z,39.46
2018-09-09T14:04:40.209Z,38.95
2018-09-09T14:07:43.578Z,41.31
2018-09-09T14:10:46.782Z,39.21
2018-09-09T14:13:55.183Z,38.26
2018-09-09T14:16:58.357Z,38.45
2018-09-09T14:20:02.054Z,38.02
2018-09-09T14:23:06.242Z,39.16
2018-09-09T14:26:09.400Z,39.11
2018-09-09T14:29:15.589Z,38.72
2018-09-09T14:32:19.150Z,39.51
2018-09-09T14:35:22.269Z,39.92
2018-09-09T14:38:25.559Z,38.90
2018-09-09T14:41:28.729Z,38.22
2018-09-09T14:44:32.082Z,38.82
2018-09-09T14:47:35.260Z,39.33
2018-09-09T14:50:38.458Z,38.68
2018-09-09T14:53:42.799Z,38.65
2018-09-09T14:56:46.063Z,38.41
2018-09-09T14:59:49.500Z,38.67
2018-09-09T15:02:52.797Z,40.11
2018-09-09T15:05:56.081Z,39.86
2018-09-09T15:09:07.227Z,38.50
2018-09-09T15:12:10.560Z,38.66
2018-09-09T15:15:14.108Z,39.01
2018-09-09T15:18:32.260Z,39.69
2018-09-09T15:21:38.018Z,40.30
2018-09-09T15:24:42.615Z,39.52
2018-09-09T15:27:46.576Z,39.02
2018-09-09T15:30:52.065Z,39.00
2018-09-09T15:33:55.685Z,40.08
2018-09-09T15:36:58.927Z,39.71
2018-09-09T15:40:02.332Z,39.22
2018-09-09T15:43:05.525Z,39.70
2018-09-09T15:46:09.664Z,40.64
2018-09-09T15:49:12.854Z,39.61
2018-09-09T15:52:16.284Z,38.38
2018-09-09T15:55:19.628Z,40.54
2018-09-09T15:58:23.593Z,41.00
2018-09-09T16:01:27.028Z,41.18
2018-09-09T16:04:30.363Z,41.85
2018-09-09T16:07:34.745Z,41.21
2018-09-09T16:10:38.009Z,41.69
2018-09-09T16:13:41.590Z,42.58
2018-09-09T16:16:45.952Z,42.54
2018-09-09T16:19:49.301Z,41.82
2018-09-09T16:22:52.754Z,40.88
2018-09-09T16:25:56.097Z,41.17
2018-09-09T16:28:59.374Z,43.25
2018-09-09T16:32:02.601Z,43.68
2018-09-09T16:35:05.968Z,43.46
2018-09-09T16:38:09.158Z,42.96
2018-09-09T16:41:12.335Z,42.41
2018-09-09T16:44:15.684Z,43.23
2018-09-09T16:47:19.084Z,42.08
2018-09-09T16:50:22.353Z,42.71
2018-09-09T16:53:25.723Z,42.33
2018-09-09T16:56:28.936Z,42.80
2018-09-09T16:59:32.535Z,43.85
2018-09-09T17:02:35.758Z,43.14
2018-09-09T17:05:39.122Z,43.01
2018-09-09T17:08:42.569Z,42.74
2018-09-09T17:11:46.523Z,44.21
2018-09-09T17:14:49.956Z,44.20
2018-09-09T17:17:53.242Z,45.81
2018-09-09T17:20:56.692Z,46.13
2018-09-09T17:24:01.099Z,47.69
2018-09-09T17:27:04.377Z,49.10
2018-09-09T17:30:07.589Z,48.89
2018-09-09T17:33:10.903Z,49.73
2018-09-09T17:36:14.098Z,49.95
2018-09-09T17:39:17.400Z,51.54
2018-09-09T17:42:20.631Z,51.66
2018-09-09T17:45:23.971Z,53.16
2018-09-09T17:48:27.236Z,52.75
2018-09-09T17:51:30.480Z,53.07
2018-09-09T17:54:33.792Z,53.62
2018-09-09T17:57:36.938Z,54.68
2018-09-09T18:00:40.142Z,53.62
2018-09-09T18:03:43.337Z,55.48
2018-09-09T18:06:46.614Z,55.27
2018-09-09T18:09:49.899Z,55.35
2018-09-09T18:12:53.187Z,56.00
2018-09-09T18:15:56.657Z,55.42
2018-09-09T18:19:00.001Z,57.30
2018-09-09T18:22:03.249Z,57.22
2018-09-09T18:25:06.489Z,55.61
2018-09-09T18:28:09.746Z,56.96
2018-09-09T18:31:13.104Z,55.66
2018-09-09T18:34:16.453Z,57.08
2018-09-09T18:37:19.658Z,56.55
2018-09-09T18:40:22.886Z,57.27
2018-09-09T18:43:26.080Z,57.79
2018-09-09T18:46:29.620Z,56.87
2018-09-09T18:49:32.764Z,56.46
2018-09-09T18:52:35.943Z,56.90
2018-09-09T18:55:39.154Z,57.50
2018-09-09T18:58:42.291Z,57.58
2018-09-09T19:01:45.497Z,57.38
2018-09-09T19:04:48.698Z,55.41
2018-09-09T19:07:51.864Z,56.90
2018-09-09T19:10:55.292Z,57.28
2018-09-09T19:13:58.466Z,61.37
2018-09-09T19:17:01.737Z,59.24
2018-09-09T19:20:05.144Z,60.20
2018-09-09T19:23:08.344Z,60.74
2018-09-09T19:26:11.502Z,61.02
2018-09-09T19:29:14.834Z,62.78
2018-09-09T19:32:17.996Z,63.11
2018-09-09T19:35:21.396Z,62.72
2018-09-09T19:38:24.652Z,62.97
2018-09-09T19:41:27.738Z,65.33
2018-09-09T19:44:30.924Z,65.21
2018-09-09T19:47:34.644Z,65.82
2018-09-09T19:50:37.917Z,66.74
2018-09-09T19:53:40.972Z,67.70
2018-09-09T19:56:44.284Z,66.56
2018-09-09T19:59:47.664Z,65.08
2018-09-09T20:02:50.961Z,64.48
2018-09-09T20:05:54.260Z,64.74
2018-09-09T20:08:57.532Z,66.30
2018-09-09T20:12:00.933Z,69.32
2018-09-09T20:15:04.504Z,66.07
2018-09-09T20:18:07.795Z,67.53
2018-09-09T20:21:11.009Z,67.41
2018-09-09T20:24:14.299Z,68.14
2018-09-09T20:27:17.677Z,70.69
2018-09-09T20:30:20.989Z,69.27
2018-09-09T20:33:24.327Z,68.70
2018-09-09T20:36:27.501Z,67.44
2018-09-09T20:39:30.662Z,68.66
2018-09-09T20:42:33.783Z,65.31
2018-09-09T20:45:37.048Z,68.49
2018-09-09T20:48:40.278Z,70.50
2018-09-09T20:51:43.540Z,69.16
2018-09-09T20:54:46.774Z,70.70
2018-09-09T20:57:50.082Z,68.63
2018-09-09T21:00:53.402Z,69.82
2018-09-09T21:03:56.762Z,70.46
2018-09-09T21:07:00.081Z,71.70
2018-09-09T21:10:03.374Z,69.25
2018-09-09T21:13:11.158Z,69.02
2018-09-09T21:16:14.505Z,69.21
2018-09-09T21:19:17.745Z,68.76
2018-09-09T21:22:21.183Z,69.48
2018-09-09T21:25:24.539Z,69.51
2018-09-09T21:28:27.948Z,70.98
2018-09-09T21:31:31.167Z,70.69
2018-09-09T21:34:34.298Z,72.05
2018-09-09T21:37:37.653Z,73.36
2018-09-09T21:40:40.889Z,73.59
2018-09-09T21:43:44.038Z,74.25
2018-09-09T21:46:47.392Z,73.45
2018-09-09T21:49:50.574Z,73.20
2018-09-09T21:52:53.763Z,74.83
2018-09-09T21:55:56.914Z,76.57
2018-09-09T21:59:00.082Z,75.88
2018-09-09T22:02:05.635Z,77.23
2018-09-09T22:05:08.803Z,76.04
2018-09-09T22:08:12.127Z,76.41
2018-09-09T22:11:15.458Z,75.11
2018-09-09T22:14:18.581Z,75.55
2018-09-09T22:17:21.789Z,75.95
2018-09-09T22:20:25.048Z,76.51
2018-09-09T22:23:28.330Z,76.40
2018-09-09T22:26:31.638Z,76.43
2018-09-09T22:29:34.839Z,78.42
2018-09-09T22:32:38.130Z,76.49
2018-09-09T22:35:41.435Z,75.59
2018-09-09T22:38:48.248Z,77.76
2018-09-09T22:41:53.488Z,76.80
2018-09-09T22:44:56.777Z,75.90
2018-09-09T22:48:00.078Z,77.74
2018-09-09T22:51:03.418Z,78.38
2018-09-09T22:54:06.715Z,77.46
2018-09-09T22:57:09.927Z,77.25
2018-09-09T23:00:13.163Z,78.64
2018-09-09T23:03:17.510Z,77.93
2018-09-09T23:06:20.828Z,79.07
2018-09-09T23:09:26.162Z,79.15
2018-09-09T23:12:29.457Z,79.43
2018-09-09T23:15:32.782Z,79.61
2018-09-09T23:18:37.093Z,79.31
2018-09-09T23:21:40.482Z,78.56
2018-09-09T23:24:43.731Z,78.77
2018-09-09T23:27:46.932Z,80.89
2018-09-09T23:30:51.170Z,79.92
2018-09-09T23:33:55.731Z,79.77
2018-09-09T23:36:59.102Z,80.47
2018-09-09T23:40:02.403Z,82.03
2018-09-09T23:43:05.648Z,81.82
2018-09-09T23:46:08.875Z,81.76
2018-09-09T23:49:12.081Z,80.49
2018-09-09T23:52:15.234Z,80.53
2018-09-09T23:55:18.407Z,80.97
2018-09-09T23:58:22.004Z,80.69
